Historique des mesures à Cassis (13260), France
Quotidien Résumé Juin 27, 2018 Unités:  Métrique    US   Métrique/US
« Précédent (Jour)
Suivant (Jour) »
Quotidien Hebdomadaire Mensuel Annuel Période au choix
  Maximum: Minimum: Moyenne:
Température: TemperatureC °C 18.8 °C 23.4 °C
Point de rosée: DewpointC °C 12.5 °C 15.6 °C
Humidité: Humidity % 53 % 58 %
Vitesse du vent: 0 km/h 0 km/h 2.6 km/h
Rafales: 0 km/h - -
Vent:- - South
Pression: PressurehPa hPa 1007.5 hPa -
Précipitations: 0.0 mm    
Historical Graphs
 
 
Mesures pour : Juin 27, 2018
Heure Temperature Point de rosée Pression Vent Vitesse du vent Rafales Humidité Pluie (par heure) Conditions
TemperatureC °C DewpointC °C PressurehPa hPa Calm     Humidity % HourlyPrecipMM mm SoftwareType W/m2
00:10 21.6 °C 14.5 °C 1013.3 hPa Calm     64 % 0.0 mm open2300-1.11 W/m2
01:10 20.9 °C 13.8 °C 1013.7 hPa Calm     64 % 0.0 mm open2300-1.11 W/m2
02:10 20.2 °C 13.4 °C 1013.4 hPa Calm   5.6 km/h 65 % 0.0 mm open2300-1.11 W/m2
03:10 19.8 °C 13.5 °C 1013.1 hPa NW 3.4 km/h 5.1 km/h 67 % 0.0 mm open2300-1.11 W/m2
04:10 19.3 °C 13.2 °C 1013.1 hPa Calm   4.7 km/h 68 % 0.0 mm open2300-1.11 W/m2
05:10 19.1 °C 12.8 °C 1012.9 hPa NNW 2.3 km/h 3.4 km/h 67 % 0.0 mm open2300-1.11 W/m2
06:10 18.8 °C 12.5 °C 1012.7 hPa Calm   2.3 km/h 67 % 0.0 mm open2300-1.11 W/m2
07:10 19.1 °C 12.8 °C 1012.4 hPa Calm   2.3 km/h 67 % 0.0 mm open2300-1.11 W/m2
08:10 22.5 °C 14.6 °C 1012.2 hPa ESE 1.8 km/h 1.8 km/h 61 % 0.0 mm open2300-1.11 W/m2
09:10 22.5 °C 15.3 °C 1012.0 hPa SE 3.4 km/h 7.6 km/h 64 % 0.0 mm open2300-1.11 W/m2
10:10 24.7 °C 18.4 °C 1011.7 hPa South 6.4 km/h 18.7 km/h 68 % 0.0 mm open2300-1.11 W/m2
11:10 28.0 °C 19.2 °C 1011.2 hPa SSE 11.6 km/h 11.6 km/h 59 % 0.0 mm open2300-1.11 W/m2
12:10 29.0 °C 18.4 °C 1010.9 hPa WSW 7.6 km/h 18.7 km/h 53 % 0.0 mm open2300-1.11 W/m2
13:10 29.3 °C 18.7 °C 1010.6 hPa SSW 16.3 km/h 16.3 km/h 53 % 0.0 mm open2300-1.11 W/m2
14:10 29.1 °C 19.2 °C 1010.2 hPa ENE 3.4 km/h 14 km/h 55 % 0.0 mm open2300-1.11 W/m2
15:10 28.9 °C 19.2 °C 1009.5 hPa SE 3.4 km/h 9.8 km/h 56 % 0.0 mm open2300-1.11 W/m2
16:10 28.6 °C 19.2 °C 1008.9 hPa Calm   6.4 km/h 57 % 0.0 mm open2300-1.11 W/m2
17:10 27.9 °C 19.1 °C 1008.1 hPa Calm   2.9 km/h 59 % 0.0 mm open2300-1.11 W/m2
18:10 28.1 °C 18.4 °C 1007.5 hPa Calm   6.9 km/h 56 % 0.0 mm open2300-1.11 W/m2
19:10 28.1 °C 17.6 °C 1007.7 hPa Calm   6.4 km/h 53 % 0.0 mm open2300-1.11 W/m2
20:10 26.8 °C 16.9 °C 1007.8 hPa ESE 4.2 km/h 4.2 km/h 55 % 0.0 mm open2300-1.11 W/m2
21:10 25.4 °C 16.8 °C 1007.9 hPa Calm   3.4 km/h 59 % 0.0 mm open2300-1.11 W/m2
22:10 24.4 °C 16.4 °C 1008.3 hPa Calm   3.4 km/h 61 % 0.0 mm open2300-1.11 W/m2
23:10 23.7 °C 15.7 °C 1008.2 hPa Calm     61 % 0.0 mm open2300-1.11 W/m2
Observations météo à CASSIS
WU-History script by Weather Underground - 1 mb